Station info - map view · info · telemetry · weather · raw · status · beacons · messages · bulletins · browse · moving · my account
Callsign, ship name or locator: Clear       
It is possible to search using wildcards (*?) after a prefix. Example: OH*
APRS station IZ2EVE-9 - show graphs
Map loading...
Mic-E message: En route
Location: 45°18.14' N 8°51.47' E - locator JN45KH22WN - show map - static map
4.7 miles Southeast bearing 150° from Cassolnovo, Provincia di Pavia, Lombardy, Italy [?]
4.9 miles East bearing 111° from Gravellona Lomellina (Gravellona), Provincia di Pavia, Lombardy, Italy
19.6 miles Southwest bearing 235° from Milan, Province of Milan, Lombardy, Italy
59.2 miles East bearing 74° from Torino, Provincia di Torino, Piedmont, Italy
Last position: 2018-05-14 02:02:24 EDT (8d 21h29m ago)
2018-05-14 08:02:24 CEST local time at Cassolnovo, Italy [?]
Altitude: -157 ft
Course: 77°
Speed: 15 MPH
Device: Yaesu: FTM-400DR (rig)
Last path: IZ2EVE-9>TU1XQ4 via IR2UFH,WIDE1*,WIDE2-1,qAR,IR2UFW (good)
Positions stored: 45910
Other SSIDs: IZ2EVE IZ2EVE-1 IZ2EVE-10 IZ2EVE-8 IZ2EVE-B IZ2EVE-C IZ2EVE-H0 IZ2EVE-ND IZ2EVE-R IZ2EVE-Y
Stations near current position of IZ2EVE-9 - show more
callsign distance last heard - EDT      callsign distance last heard - EDT
IZ2XZM B1.8 miles 27°2018-05-06 16:37:08 IZ2XZM-H01.8 miles 27°2018-05-21 01:30:34
IR2UFH3.0 miles 185°2018-05-22 12:40:35 L40401554.0 miles 218°2018-05-14 20:40:22
IZ2EVE4.3 miles 333°2018-05-22 23:26:33 IZ2EVE-Y4.4 miles 326°2018-05-19 13:53:36
IZ2EVE-R4.5 miles 330°2018-05-12 05:37:33 IZ2EVE-H04.5 miles 330°2018-05-22 20:00:41
IZ2EVE-105.0 miles 320°2018-05-22 23:31:18 L41202955.4 miles 15°2018-05-06 09:05:21
DW68755.5 miles 82°2018-05-22 23:30:11 IR2UFW-106.2 miles 52°2018-05-22 23:31:18
I2FUZ6.3 miles 173°2018-05-09 15:07:58 IZ2LPW7.8 miles 24°2018-05-22 15:58:14
IR2UFW8.4 miles 54°2018-05-22 23:23:48 IZ2FOO-58.5 miles 53°2018-04-26 16:02:28
IW2NBW-109.0 miles 10°2018-05-01 09:45:45 EA7KBT-910.4 miles 2°2018-05-22 11:06:15
EA7KBT10.4 miles 2°2018-05-22 15:31:15 EA7KBT B10.4 miles 2°2018-05-06 02:03:28
Stations which heard IZ2EVE-9 directly on radio –
callsign pkts first heard - EDT last heard longest (tx => rx) longest at - EDT
IR1AO 56 2018-05-13 01:29:45 2018-05-13 13:21:13 JN45JI > JN35XO 42.8 miles 292° 2018-05-13 01:29:45
IK2XDE-6 3 2018-05-13 01:47:20 2018-05-13 13:04:41 JN45FI > JN45MQ 40.0 miles 52° 2018-05-13 02:04:49
IR2UBX-11 31 2018-05-13 01:31:00 2018-05-14 02:01:46 JN45FI > JN45MQ 38.0 miles 50° 2018-05-13 12:52:05
IQ1IV 15 2018-05-13 01:49:55 2018-05-13 13:03:08 JN45HK > JN35WL 35.5 miles 275° 2018-05-13 01:49:55
IR2BZ 2 2018-05-13 01:47:20 2018-05-13 13:09:51 JN45HK > JN45XO 63.9 miles 79° 2018-05-13 01:47:20
IW2HUZ-11 20 2018-05-13 02:05:51 2018-05-13 13:32:06 JN45FI > JN45MU 48.4 miles 40° 2018-05-13 02:05:51
IR2UGB 1 2018-05-13 02:01:43 2018-05-13 02:01:43 JN45FI > JN45IC 19.8 miles 151° 2018-05-13 02:01:43
IR1DM 6 2018-05-13 01:27:42 2018-05-13 13:20:41 JN45IK > JN44JS 47.3 miles 175° 2018-05-13 01:43:13
IR2S 8 2018-05-13 01:47:51 2018-05-13 13:24:30 JN45EH > JN55DQ 93.4 miles 74° 2018-05-13 02:12:20
I1EPJ-10 1 2018-05-13 02:12:51 2018-05-13 02:12:51 JN45EH > JN45FD 12.0 miles 170° 2018-05-13 02:12:51
IR2UFW 27 2018-05-13 01:27:10 2018-05-13 13:32:06 JN45GJ > JN45LI 21.6 miles 96° 2018-05-13 01:53:32
IZ1XBB-1 24 2018-05-13 01:27:15 2018-05-13 13:25:38 JN45IK > JN44KV 39.4 miles 166° 2018-05-13 01:44:52
IR2UEZ 57 2018-05-13 01:29:41 2018-05-13 13:34:47 JN45EH > JN45JP 29.1 miles 41° 2018-05-13 02:09:30
IR2UFH 2 2018-05-14 02:01:47 2018-05-14 02:02:24 JN45KH > JN45KG 3.2 miles 183° 2018-05-14 02:01:47
IU2ITE 4 2018-05-13 01:38:43 2018-05-14 02:11:49 JN45HK > JN45MK 19.8 miles 89° 2018-05-13 01:49:40
IR2UEI 46 2018-05-13 01:29:41 2018-05-13 13:32:41 JN45FI > JN45JL 21.1 miles 66° 2018-05-13 02:04:49
IZ1TMF 48 2018-05-13 01:29:41 2018-05-13 13:25:32 JN45JJ > JN35PA 78.5 miles 251° 2018-05-13 01:32:58
IU1INZ-10 2 2018-05-13 12:51:03 2018-05-13 12:53:38 JN45FI > JN35TF 42.8 miles 259° 2018-05-13 12:53:38

Only position packets which were originated by the station are shown here. The range statistics show some extra long hops, because some digipeaters do not correctly add themselves to the digipeater path. Please check the raw packets.
About this site
This page shows real-time information collected from the Automatic Position Reporting System Internet network (APRS-IS). APRS is used by amateur (ham) radio operators to transmit real-time position information, weather data, telemetry and messages over the radio. A vehicle equipped with a GPS receiver, a VHF transmitter or HF transceiver and a small computer device called a tracker transmits it's location, speed and course in a small data packet, which is then received by a nearby iGate receiving site which forwards the packet on the Internet. Systems connected to the Internet can send information on the APRS-IS without a radio transmitter, or collect and display information transmitted anywhere in the world.
FAQ · Blog · Discussion group · Linking to aprs.fi · AIS sites · Service status · Database statistics · Advertising on aprs.fi · Technical details · API · Change log · Planned changes · Credits and thanks · Terms Of Service · iPhone/iPad APRS